createdAt,value
2022-09-01T00:00:49.331Z,6.03
2022-09-01T00:03:18.537Z,6.03
2022-09-01T00:05:49.868Z,5.53
2022-09-01T00:08:18.653Z,5.60
2022-09-01T00:10:48.628Z,5.03
2022-09-01T00:13:17.445Z,6.33
2022-09-01T00:15:45.909Z,5.60
2022-09-01T00:18:15.730Z,5.93
2022-09-01T00:20:44.251Z,5.17
2022-09-01T00:23:12.711Z,5.77
2022-09-01T00:25:41.199Z,6.23
2022-09-01T00:28:10.908Z,6.17
2022-09-01T00:30:39.423Z,5.27
2022-09-01T00:33:08.094Z,6.73
2022-09-01T00:35:37.100Z,5.20
2022-09-01T00:38:06.024Z,5.60
2022-09-01T00:40:34.747Z,5.30
2022-09-01T00:43:14.893Z,5.33
2022-09-01T00:45:43.512Z,5.13
2022-09-01T00:48:12.222Z,5.73
2022-09-01T00:50:43.347Z,5.83
2022-09-01T00:53:15.650Z,5.43
2022-09-01T00:55:44.377Z,6.60
2022-09-01T00:58:19.733Z,6.10
2022-09-01T01:00:49.906Z,6.10
2022-09-01T01:03:18.471Z,5.37
2022-09-01T01:05:54.275Z,5.67
2022-09-01T01:08:31.005Z,5.53
2022-09-01T01:10:59.352Z,6.10
2022-09-01T01:13:32.127Z,5.70
2022-09-01T01:16:00.733Z,6.60
2022-09-01T01:18:29.272Z,5.23
2022-09-01T01:21:21.208Z,5.53
2022-09-01T01:23:56.553Z,5.40
2022-09-01T01:26:27.253Z,5.97
2022-09-01T01:28:56.083Z,6.13
2022-09-01T01:31:25.616Z,5.20
2022-09-01T01:33:57.118Z,5.63
2022-09-01T01:36:32.363Z,5.57
2022-09-01T01:39:05.399Z,5.60
2022-09-01T01:41:40.925Z,4.83
2022-09-01T01:44:11.996Z,5.63
2022-09-01T01:46:43.215Z,6.07
2022-09-01T01:49:13.297Z,5.57
2022-09-01T01:51:44.315Z,4.87
2022-09-01T01:54:14.297Z,5.10
2022-09-01T01:56:44.177Z,5.50
2022-09-01T01:59:16.501Z,5.27
2022-09-01T02:01:51.468Z,5.67
2022-09-01T02:04:21.363Z,5.53
2022-09-01T02:06:51.377Z,4.73
2022-09-01T02:09:23.230Z,5.27
2022-09-01T02:11:57.153Z,5.50
2022-09-01T02:14:25.744Z,5.37
2022-09-01T02:16:56.137Z,5.33
2022-09-01T02:19:24.823Z,5.10
2022-09-01T02:21:56.290Z,5.60
2022-09-01T02:24:26.218Z,5.20
2022-09-01T02:26:57.696Z,5.30
2022-09-01T02:29:28.790Z,4.83
2022-09-01T02:31:58.043Z,5.40
2022-09-01T02:34:28.888Z,5.57
2022-09-01T02:36:58.269Z,5.23
2022-09-01T02:39:29.107Z,5.87
2022-09-01T02:42:01.330Z,5.97
2022-09-01T02:44:31.149Z,5.60
2022-09-01T02:47:01.860Z,5.83
2022-09-01T02:49:31.382Z,4.80
2022-09-01T02:52:01.871Z,5.47
2022-09-01T02:54:32.890Z,5.70
2022-09-01T02:57:03.973Z,5.70
2022-09-01T02:59:34.889Z,5.43
2022-09-01T03:02:03.311Z,5.43
2022-09-01T03:04:35.079Z,5.20
2022-09-01T03:07:04.428Z,5.40
2022-09-01T03:09:35.458Z,5.47
2022-09-01T03:12:07.223Z,5.00
2022-09-01T03:14:36.422Z,5.53
2022-09-01T03:17:04.944Z,4.47
2022-09-01T03:19:44.372Z,5.27
2022-09-01T03:22:13.752Z,4.73
2022-09-01T03:24:43.060Z,4.80
2022-09-01T03:27:12.878Z,5.40
2022-09-01T03:29:41.333Z,4.57
2022-09-01T03:32:10.234Z,4.57
2022-09-01T03:34:39.482Z,5.30
2022-09-01T03:37:08.088Z,4.63
2022-09-01T03:39:36.815Z,4.43
2022-09-01T03:42:08.355Z,5.13
2022-09-01T03:44:40.419Z,4.90
2022-09-01T03:47:11.581Z,4.57
2022-09-01T03:49:40.521Z,4.97
2022-09-01T03:52:09.073Z,5.17
2022-09-01T03:54:37.755Z,5.33
2022-09-01T03:57:09.953Z,5.17
2022-09-01T03:59:45.212Z,4.97
2022-09-01T04:02:15.122Z,5.00
2022-09-01T04:04:43.719Z,5.90
2022-09-01T04:07:17.195Z,5.63
2022-09-01T04:09:48.176Z,6.17
2022-09-01T04:12:17.218Z,6.13
2022-09-01T04:14:51.079Z,6.33
2022-09-01T04:17:38.309Z,5.63
2022-09-01T04:20:09.374Z,5.20
2022-09-01T04:22:38.358Z,5.50
2022-09-01T04:25:08.908Z,5.13
2022-09-01T04:27:40.596Z,4.97
2022-09-01T04:30:13.352Z,6.10
2022-09-01T04:32:46.896Z,5.93
2022-09-01T04:35:17.120Z,5.70
2022-09-01T04:37:48.478Z,6.17
2022-09-01T04:40:18.699Z,6.23
2022-09-01T04:42:48.120Z,5.47
2022-09-01T04:45:22.364Z,6.13
2022-09-01T04:47:51.223Z,5.77
2022-09-01T04:50:22.142Z,5.60
2022-09-01T04:53:12.068Z,5.60
2022-09-01T04:55:44.358Z,5.07
2022-09-01T04:58:17.866Z,4.40
2022-09-01T05:00:52.139Z,5.30
2022-09-01T05:03:44.015Z,5.00
2022-09-01T05:06:46.530Z,5.40
2022-09-01T05:09:36.208Z,5.33
2022-09-01T05:12:59.583Z,5.43
2022-09-01T05:16:11.311Z,5.70
2022-09-01T05:19:03.001Z,5.07
2022-09-01T05:21:40.192Z,5.60
2022-09-01T05:24:22.043Z,5.63
2022-09-01T05:27:22.041Z,5.83
2022-09-01T05:30:16.942Z,4.90
2022-09-01T05:32:59.494Z,6.37
2022-09-01T05:36:01.217Z,5.90
2022-09-01T05:39:02.608Z,5.70
2022-09-01T05:41:52.087Z,5.67
2022-09-01T05:44:36.106Z,5.60
2022-09-01T05:47:42.144Z,4.83
2022-09-01T05:50:30.048Z,5.07
2022-09-01T05:53:15.969Z,5.93
2022-09-01T05:55:59.522Z,6.30
2022-09-01T06:01:50.511Z,6.60
2022-09-01T06:04:27.821Z,7.00
2022-09-01T06:07:25.183Z,6.87
2022-09-01T06:10:38.188Z,5.80
2022-09-01T06:13:27.445Z,6.43
2022-09-01T06:16:25.237Z,6.57
2022-09-01T06:19:13.466Z,6.80
2022-09-01T06:22:04.190Z,7.03
2022-09-01T06:24:49.651Z,6.23
2022-09-01T06:27:45.956Z,6.23
2022-09-01T06:30:31.550Z,6.67
2022-09-01T06:33:16.247Z,6.47
2022-09-01T06:36:18.084Z,8.00
2022-09-01T06:39:11.663Z,7.33
2022-09-01T06:41:53.216Z,6.77
2022-09-01T06:44:27.173Z,6.33
2022-09-01T06:47:02.079Z,5.73
2022-09-01T06:49:34.874Z,7.27
2022-09-01T06:52:09.810Z,5.87
2022-09-01T06:54:48.832Z,6.53
2022-09-01T07:00:18.818Z,5.60
2022-09-01T07:02:50.236Z,6.87
2022-09-01T07:17:52.430Z,5.97
2022-09-01T07:20:24.580Z,6.47
2022-09-01T07:23:09.410Z,6.27
2022-09-01T07:26:01.017Z,6.47
2022-09-01T07:28:37.016Z,6.73
2022-09-01T07:39:51.530Z,5.20
2022-09-01T07:42:31.992Z,6.47
2022-09-01T07:45:59.139Z,5.70
2022-09-01T07:49:01.289Z,5.20
2022-09-01T07:51:38.044Z,6.60
2022-09-01T07:54:07.927Z,5.73
2022-09-01T07:56:40.055Z,5.20
2022-09-01T07:59:15.045Z,6.23
2022-09-01T08:01:55.969Z,5.90
2022-09-01T08:04:24.504Z,4.93
2022-09-01T08:06:56.623Z,5.20
2022-09-01T08:09:37.195Z,5.40
2022-09-01T08:12:08.380Z,5.23
2022-09-01T08:14:43.067Z,5.23
2022-09-01T08:17:34.390Z,5.10
2022-09-01T08:20:03.781Z,4.40
2022-09-01T08:22:50.519Z,5.00
2022-09-01T08:25:27.875Z,5.03
2022-09-01T08:28:00.362Z,4.90
2022-09-01T08:30:30.022Z,4.30
2022-09-01T08:32:59.098Z,4.90
2022-09-01T08:35:29.462Z,4.60
2022-09-01T08:38:00.835Z,4.97
2022-09-01T08:40:30.402Z,5.40
2022-09-01T08:43:15.902Z,4.90
2022-09-01T08:45:49.009Z,5.03
2022-09-01T08:51:18.600Z,4.80
2022-09-01T08:54:09.312Z,4.73
2022-09-01T08:56:38.518Z,4.83
2022-09-01T08:59:09.920Z,4.70
2022-09-01T09:02:36.918Z,4.73
2022-09-01T09:05:15.816Z,4.77
2022-09-01T09:08:06.485Z,4.70
2022-09-01T09:10:43.551Z,3.73
2022-09-01T09:13:19.372Z,4.00
2022-09-01T09:16:07.349Z,4.17
2022-09-01T09:18:54.644Z,4.07
2022-09-01T09:21:27.178Z,4.27
2022-09-01T09:23:58.133Z,4.50
2022-09-01T09:26:42.136Z,4.63
2022-09-01T09:29:11.421Z,5.20
2022-09-01T09:31:49.963Z,4.40
2022-09-01T09:34:32.471Z,5.00
2022-09-01T09:37:23.158Z,4.53
2022-09-01T09:40:11.489Z,4.33
2022-09-01T09:42:43.540Z,4.53
2022-09-01T09:45:23.792Z,5.13
2022-09-01T09:47:53.079Z,4.77
2022-09-01T09:50:25.422Z,5.07
2022-09-01T09:52:56.536Z,4.50
2022-09-01T09:55:27.053Z,4.80
2022-09-01T09:57:59.914Z,4.33
2022-09-01T10:00:30.403Z,4.30
2022-09-01T10:03:01.349Z,4.50
2022-09-01T10:05:39.581Z,4.10
2022-09-01T10:08:10.934Z,4.00
2022-09-01T10:10:41.877Z,3.90
2022-09-01T10:13:14.032Z,3.67
2022-09-01T10:15:45.565Z,3.80
2022-09-01T10:18:28.996Z,4.00
2022-09-01T10:21:00.414Z,3.70
2022-09-01T10:23:30.866Z,3.80
2022-09-01T10:26:05.984Z,4.73
2022-09-01T10:28:49.951Z,3.80
2022-09-01T10:31:20.466Z,4.10
2022-09-01T10:33:49.795Z,3.70
2022-09-01T10:36:19.892Z,3.83
2022-09-01T10:38:53.788Z,3.80
2022-09-01T10:42:07.612Z,4.03
2022-09-01T10:44:40.913Z,3.30
2022-09-01T10:47:14.783Z,3.40
2022-09-01T10:50:01.695Z,3.07
2022-09-01T10:53:02.168Z,3.10
2022-09-01T10:55:34.969Z,3.00
2022-09-01T10:59:31.602Z,3.20
2022-09-01T11:01:11.184Z,3.13
2022-09-01T11:03:52.183Z,3.47
2022-09-01T11:07:13.872Z,2.90
2022-09-01T11:09:43.856Z,2.97
2022-09-01T11:12:33.817Z,3.07
2022-09-01T11:15:03.946Z,3.40
2022-09-01T11:17:36.422Z,3.47
2022-09-01T11:20:10.085Z,3.30
2022-09-01T11:22:40.840Z,3.30
2022-09-01T11:25:14.295Z,3.50
2022-09-01T11:28:04.013Z,3.40
2022-09-01T11:30:45.972Z,3.40
2022-09-01T11:33:29.990Z,3.57
2022-09-01T11:36:02.281Z,3.30
2022-09-01T11:38:39.851Z,3.23
2022-09-01T11:41:08.275Z,3.50
2022-09-01T11:43:37.174Z,3.67
2022-09-01T11:46:11.305Z,3.60
2022-09-01T11:48:46.715Z,3.30
2022-09-01T11:51:21.435Z,3.50
2022-09-01T11:53:51.373Z,3.10
2022-09-01T11:56:23.126Z,3.33
2022-09-01T11:58:51.641Z,2.80
2022-09-01T12:01:38.912Z,3.80
2022-09-01T12:04:23.148Z,3.20
2022-09-01T12:06:58.031Z,3.20
2022-09-01T12:09:34.529Z,3.20
2022-09-01T12:12:03.379Z,3.40
2022-09-01T12:14:48.855Z,3.33
2022-09-01T12:17:21.873Z,3.40
2022-09-01T12:19:51.716Z,2.97
2022-09-01T12:22:22.394Z,3.40
2022-09-01T12:24:53.095Z,3.23
2022-09-01T12:27:23.238Z,3.70
2022-09-01T12:29:51.915Z,3.40
2022-09-01T12:32:20.785Z,3.37
2022-09-01T12:35:09.230Z,3.20
2022-09-01T12:37:39.965Z,3.50
2022-09-01T12:40:23.834Z,3.60
2022-09-01T12:42:53.901Z,3.27
2022-09-01T12:45:40.650Z,3.57
2022-09-01T12:48:25.846Z,3.03
2022-09-01T12:50:56.152Z,3.27
2022-09-01T12:53:31.682Z,3.20
2022-09-01T12:56:17.891Z,3.23
2022-09-01T12:58:49.562Z,2.90
2022-09-01T13:01:32.581Z,3.00
2022-09-01T13:04:16.050Z,3.00
2022-09-01T13:06:45.801Z,2.90
2022-09-01T13:09:14.287Z,3.13
2022-09-01T13:14:32.196Z,2.90
2022-09-01T13:17:01.230Z,2.87
2022-09-01T13:19:30.553Z,3.37
2022-09-01T13:22:00.613Z,2.90
2022-09-01T13:24:52.312Z,2.90
2022-09-01T13:27:23.274Z,3.10
2022-09-01T13:29:52.338Z,2.85
2022-09-01T13:32:22.506Z,2.70
2022-09-01T13:34:53.702Z,2.60
2022-09-01T13:37:24.615Z,2.40
2022-09-01T13:39:53.209Z,2.40
2022-09-01T13:42:22.646Z,1.95
2022-09-01T13:44:55.391Z,2.22
2022-09-01T13:47:28.885Z,2.20
2022-09-01T13:50:07.039Z,2.03
2022-09-01T13:52:38.439Z,2.13
2022-09-01T13:55:08.680Z,2.30
2022-09-01T13:57:37.175Z,2.28
2022-09-01T14:00:08.321Z,1.77
2022-09-01T14:02:39.838Z,2.22
2022-09-01T14:05:09.458Z,2.20
2022-09-01T14:07:39.219Z,2.05
2022-09-01T14:10:08.903Z,2.10
2022-09-01T14:12:37.498Z,2.00
2022-09-01T14:15:13.007Z,1.90
2022-09-01T14:17:43.204Z,1.70
2022-09-01T14:20:13.864Z,1.70
2022-09-01T14:22:43.935Z,2.10
2022-09-01T14:25:13.080Z,1.83
2022-09-01T14:27:42.599Z,2.10
2022-09-01T14:30:17.630Z,1.90
2022-09-01T14:32:46.086Z,1.77
2022-09-01T14:35:15.609Z,1.90
2022-09-01T14:37:45.688Z,2.05
2022-09-01T14:40:16.573Z,1.92
2022-09-01T14:42:47.630Z,1.60
2022-09-01T14:45:18.495Z,1.83
2022-09-01T14:47:47.828Z,2.13
2022-09-01T14:50:21.640Z,1.70
2022-09-01T14:52:55.450Z,1.60
2022-09-01T14:55:25.449Z,1.77
2022-09-01T14:57:54.988Z,1.80
2022-09-01T15:00:25.177Z,1.63
2022-09-01T15:02:55.061Z,1.80
2022-09-01T15:05:24.916Z,1.83
2022-09-01T15:07:54.830Z,2.00
2022-09-01T15:10:25.954Z,1.87
2022-09-01T15:12:56.238Z,2.15
2022-09-01T15:15:25.137Z,2.37
2022-09-01T15:17:53.749Z,2.00
2022-09-01T15:20:40.133Z,2.00
2022-09-01T15:23:10.447Z,2.13
2022-09-01T15:25:38.845Z,2.40
2022-09-01T15:28:07.384Z,1.90
2022-09-01T15:30:36.921Z,2.30
2022-09-01T15:33:05.718Z,2.13
2022-09-01T15:35:34.565Z,1.90
2022-09-01T15:38:03.130Z,2.00
2022-09-01T15:40:33.185Z,2.23
2022-09-01T15:43:02.167Z,2.10
2022-09-01T15:45:30.622Z,2.10
2022-09-01T15:47:58.996Z,2.17
2022-09-01T15:50:28.223Z,2.00
2022-09-01T15:52:58.670Z,2.00
2022-09-01T15:55:29.118Z,1.90
2022-09-01T15:58:00.135Z,2.60
2022-09-01T16:00:29.650Z,2.53
2022-09-01T16:03:01.635Z,2.10
2022-09-01T16:05:30.562Z,2.67
2022-09-01T16:08:01.194Z,2.10
2022-09-01T16:10:33.556Z,2.10
2022-09-01T16:13:07.111Z,2.00
2022-09-01T16:15:36.145Z,1.90
2022-09-01T16:18:13.611Z,2.03
2022-09-01T16:20:49.971Z,2.07
2022-09-01T16:23:20.309Z,2.30
2022-09-01T16:25:49.204Z,1.73
2022-09-01T16:28:30.051Z,1.90
2022-09-01T16:31:02.012Z,2.20
2022-09-01T16:33:30.466Z,2.00
2022-09-01T16:36:17.183Z,1.60
2022-09-01T16:38:49.136Z,1.90
2022-09-01T16:41:29.325Z,1.83
2022-09-01T16:44:05.912Z,1.63
2022-09-01T16:46:39.151Z,1.67
2022-09-01T16:49:18.097Z,1.97
2022-09-01T16:51:49.966Z,1.60
2022-09-01T16:54:24.998Z,1.53
2022-09-01T16:56:56.472Z,1.40
2022-09-01T16:59:33.704Z,1.77
2022-09-01T17:02:10.540Z,1.60
2022-09-01T17:04:41.517Z,1.83
2022-09-01T17:07:15.664Z,1.90
2022-09-01T17:09:45.617Z,1.90
2022-09-01T17:12:27.695Z,1.80
2022-09-01T17:14:59.703Z,1.80
2022-09-01T17:17:34.745Z,1.57
2022-09-01T17:20:06.446Z,1.50
2022-09-01T17:22:35.465Z,1.87
2022-09-01T17:25:07.728Z,1.70
2022-09-01T17:27:54.127Z,1.70
2022-09-01T17:30:53.518Z,1.80
2022-09-01T17:33:34.339Z,2.10
2022-09-01T17:36:12.139Z,1.90
2022-09-01T17:38:53.958Z,1.83
2022-09-01T17:41:34.540Z,1.93
2022-09-01T17:44:12.858Z,2.00
2022-09-01T17:46:44.862Z,1.70
2022-09-01T17:49:19.943Z,1.90
2022-09-01T17:51:55.282Z,1.80
2022-09-01T17:54:30.959Z,1.90
2022-09-01T17:57:05.036Z,2.30
2022-09-01T17:59:42.683Z,2.03
2022-09-01T18:02:24.719Z,2.10
2022-09-01T18:05:01.387Z,2.23
2022-09-01T18:07:57.753Z,1.97
2022-09-01T18:10:30.270Z,1.90
2022-09-01T18:13:02.366Z,2.50
2022-09-01T18:15:41.748Z,2.20
2022-09-01T18:18:24.561Z,2.20
2022-09-01T18:20:57.622Z,2.20
2022-09-01T18:23:26.140Z,2.10
2022-09-01T18:25:57.594Z,2.10
2022-09-01T18:28:26.017Z,2.00
2022-09-01T18:30:59.889Z,2.20
2022-09-01T18:33:31.533Z,2.17
2022-09-01T18:36:09.632Z,2.07
2022-09-01T18:38:43.391Z,2.10
2022-09-01T18:41:34.875Z,2.60
2022-09-01T18:44:06.231Z,2.57
2022-09-01T18:46:38.940Z,2.50
2022-09-01T18:49:16.045Z,2.50
2022-09-01T18:51:53.091Z,2.50
2022-09-01T18:54:24.607Z,2.70
2022-09-01T18:56:56.947Z,2.30
2022-09-01T18:59:40.228Z,2.60
2022-09-01T19:02:19.627Z,2.30
2022-09-01T19:04:51.560Z,2.87
2022-09-01T19:07:27.237Z,2.63
2022-09-01T19:09:59.876Z,2.67
2022-09-01T19:12:35.786Z,2.97
2022-09-01T19:15:11.649Z,2.50
2022-09-01T19:18:14.983Z,2.67
2022-09-01T19:21:02.294Z,2.47
2022-09-01T19:23:42.003Z,2.40
2022-09-01T19:26:16.290Z,2.40
2022-09-01T19:28:48.074Z,2.87
2022-09-01T19:31:22.864Z,2.47
2022-09-01T19:33:54.487Z,2.80
2022-09-01T19:36:40.565Z,2.90
2022-09-01T19:39:11.864Z,2.90
2022-09-01T19:41:52.664Z,2.77
2022-09-01T19:44:30.009Z,2.60
2022-09-01T19:47:02.252Z,2.97
2022-09-01T19:49:35.003Z,3.00
2022-09-01T19:52:09.625Z,3.03
2022-09-01T19:54:45.915Z,2.90
2022-09-01T19:57:19.829Z,2.90
2022-09-01T19:59:55.037Z,3.17
2022-09-01T20:02:30.671Z,3.70
2022-09-01T20:05:06.916Z,3.53
2022-09-01T20:07:39.223Z,3.50
2022-09-01T20:10:19.932Z,3.50
2022-09-01T20:12:52.048Z,4.10
2022-09-01T20:15:24.906Z,3.40
2022-09-01T20:17:55.593Z,3.70
2022-09-01T20:20:26.902Z,3.80
2022-09-01T20:23:01.815Z,3.80
2022-09-01T20:25:33.729Z,3.10
2022-09-01T20:28:06.462Z,3.30
2022-09-01T20:30:39.886Z,3.50
2022-09-01T20:33:12.302Z,3.30
2022-09-01T20:35:44.246Z,3.53
2022-09-01T20:38:36.662Z,4.03
2022-09-01T20:41:18.139Z,3.70
2022-09-01T20:43:51.776Z,3.30
2022-09-01T20:46:21.455Z,3.57
2022-09-01T20:48:50.013Z,3.63
2022-09-01T20:51:22.883Z,3.30
2022-09-01T20:54:09.848Z,3.40
2022-09-01T20:56:45.546Z,3.70
2022-09-01T20:59:28.908Z,3.20
2022-09-01T21:01:59.493Z,3.70
2022-09-01T21:04:39.126Z,3.40
2022-09-01T21:07:13.788Z,3.33
2022-09-01T21:09:50.216Z,3.20
2022-09-01T21:19:26.867Z,3.30
2022-09-01T21:22:06.030Z,3.53
2022-09-01T21:24:35.074Z,3.63
2022-09-01T21:27:08.103Z,3.50
2022-09-01T21:29:49.798Z,3.57
2022-09-01T21:32:18.488Z,3.40
2022-09-01T21:34:47.844Z,3.80
2022-09-01T21:37:16.336Z,3.63
2022-09-01T21:39:44.797Z,3.40
2022-09-01T21:42:14.837Z,3.50
2022-09-01T21:44:44.648Z,3.47
2022-09-01T21:47:13.776Z,3.87
2022-09-01T21:49:42.394Z,4.37
2022-09-01T21:52:11.095Z,4.50
2022-09-01T21:54:39.545Z,6.17
2022-09-01T21:57:14.017Z,8.23
2022-09-01T21:59:44.889Z,8.23
2022-09-01T22:02:13.695Z,6.17
2022-09-01T22:04:42.162Z,5.03
2022-09-01T22:07:15.210Z,4.70
2022-09-01T22:09:44.291Z,3.67
2022-09-01T22:12:12.815Z,4.00
2022-09-01T22:14:41.406Z,3.57
2022-09-01T22:17:11.407Z,3.30
2022-09-01T22:19:39.889Z,3.37
2022-09-01T22:22:09.120Z,3.00
2022-09-01T22:24:37.650Z,3.57
2022-09-01T22:27:06.181Z,3.30
2022-09-01T22:29:34.657Z,3.07
2022-09-01T22:32:03.613Z,3.57
2022-09-01T22:34:34.777Z,3.40
2022-09-01T22:37:03.298Z,3.00
2022-09-01T22:39:31.743Z,3.20
2022-09-01T22:42:00.211Z,2.90
2022-09-01T22:44:28.687Z,3.00
2022-09-01T22:46:57.533Z,3.10
2022-09-01T22:49:26.156Z,2.93
2022-09-01T22:51:56.168Z,3.07
2022-09-01T22:54:25.101Z,3.23
2022-09-01T22:56:53.983Z,3.20
2022-09-01T22:59:24.961Z,2.80
2022-09-01T23:01:53.451Z,3.23
2022-09-01T23:04:22.540Z,2.73
2022-09-01T23:06:53.125Z,2.97
2022-09-01T23:09:23.204Z,2.50
2022-09-01T23:11:51.830Z,2.73
2022-09-01T23:14:20.455Z,3.13
2022-09-01T23:16:51.510Z,2.83
2022-09-01T23:19:21.261Z,2.93
2022-09-01T23:21:51.065Z,2.90
2022-09-01T23:24:20.140Z,3.10
2022-09-01T23:26:50.601Z,3.00
2022-09-01T23:29:19.169Z,3.30
2022-09-01T23:31:47.687Z,2.87
2022-09-01T23:34:17.568Z,3.27
2022-09-01T23:36:46.152Z,3.10
2022-09-01T23:39:14.688Z,2.57
2022-09-01T23:41:43.457Z,3.00
2022-09-01T23:44:14.323Z,2.87
2022-09-01T23:46:44.649Z,2.20
2022-09-01T23:49:14.418Z,2.50
2022-09-01T23:51:43.115Z,2.60
2022-09-01T23:54:11.949Z,3.13
2022-09-01T23:56:41.587Z,2.90
2022-09-01T23:59:10.406Z,2.73
